sensor_id;sensor_type;location;lat;lon;timestamp;temperature;humidity
20881;DHT22;10600;53.096;8.802;2024-02-26T00:00:55;3.40;99.90
20881;DHT22;10600;53.096;8.802;2024-02-26T00:01:56;3.40;99.90
20881;DHT22;10600;53.096;8.802;2024-02-26T00:02:56;3.30;99.90
20881;DHT22;10600;53.096;8.802;2024-02-26T00:03:57;3.30;99.90
20881;DHT22;10600;53.096;8.802;2024-02-26T00:04:59;3.30;99.90
20881;DHT22;10600;53.096;8.802;2024-02-26T00:06:01;3.30;99.90
20881;DHT22;10600;53.096;8.802;2024-02-26T00:07:02;3.30;99.90
20881;DHT22;10600;53.096;8.802;2024-02-26T00:08:02;3.30;99.90
20881;DHT22;10600;53.096;8.802;2024-02-26T00:09:03;3.40;99.90
20881;DHT22;10600;53.096;8.802;2024-02-26T00:10:06;3.40;99.90
20881;DHT22;10600;53.096;8.802;2024-02-26T00:11:07;3.40;99.90
20881;DHT22;10600;53.096;8.802;2024-02-26T00:12:07;3.40;99.90
20881;DHT22;10600;53.096;8.802;2024-02-26T00:13:08;3.50;99.90
20881;DHT22;10600;53.096;8.802;2024-02-26T00:14:08;3.50;99.90
20881;DHT22;10600;53.096;8.802;2024-02-26T00:15:09;3.50;99.90
20881;DHT22;10600;53.096;8.802;2024-02-26T00:16:10;3.50;99.90
20881;DHT22;10600;53.096;8.802;2024-02-26T00:17:11;3.40;99.90
20881;DHT22;10600;53.096;8.802;2024-02-26T00:18:11;3.40;99.90
20881;DHT22;10600;53.096;8.802;2024-02-26T00:19:12;3.50;99.90
20881;DHT22;10600;53.096;8.802;2024-02-26T00:20:12;3.40;99.90
20881;DHT22;10600;53.096;8.802;2024-02-26T00:21:14;3.40;99.90
20881;DHT22;10600;53.096;8.802;2024-02-26T00:22:14;3.40;99.90
20881;DHT22;10600;53.096;8.802;2024-02-26T00:23:15;3.40;99.90
20881;DHT22;10600;53.096;8.802;2024-02-26T00:24:16;3.30;99.90
20881;DHT22;10600;53.096;8.802;2024-02-26T00:25:17;3.30;99.90
20881;DHT22;10600;53.096;8.802;2024-02-26T00:26:17;3.30;99.90
20881;DHT22;10600;53.096;8.802;2024-02-26T00:27:18;3.30;99.90
20881;DHT22;10600;53.096;8.802;2024-02-26T00:28:18;3.30;99.90
20881;DHT22;10600;53.096;8.802;2024-02-26T00:29:20;3.30;99.90
20881;DHT22;10600;53.096;8.802;2024-02-26T00:30:21;3.20;99.90
20881;DHT22;10600;53.096;8.802;2024-02-26T00:31:23;3.20;99.90
20881;DHT22;10600;53.096;8.802;2024-02-26T00:32:24;3.10;99.90
20881;DHT22;10600;53.096;8.802;2024-02-26T00:33:24;3.10;99.90
20881;DHT22;10600;53.096;8.802;2024-02-26T00:34:25;3.10;99.90
20881;DHT22;10600;53.096;8.802;2024-02-26T00:35:25;3.00;99.90
20881;DHT22;10600;53.096;8.802;2024-02-26T00:36:26;3.00;99.90
20881;DHT22;10600;53.096;8.802;2024-02-26T00:37:26;3.00;99.90
20881;DHT22;10600;53.096;8.802;2024-02-26T00:38:27;2.90;99.90
20881;DHT22;10600;53.096;8.802;2024-02-26T00:39:28;2.90;99.90
20881;DHT22;10600;53.096;8.802;2024-02-26T00:40:28;2.90;99.90
20881;DHT22;10600;53.096;8.802;2024-02-26T00:41:29;2.90;99.90
20881;DHT22;10600;53.096;8.802;2024-02-26T00:42:30;2.90;99.90
20881;DHT22;10600;53.096;8.802;2024-02-26T00:43:30;2.90;99.90
20881;DHT22;10600;53.096;8.802;2024-02-26T00:44:31;2.90;99.90
20881;DHT22;10600;53.096;8.802;2024-02-26T00:45:32;2.90;99.90
20881;DHT22;10600;53.096;8.802;2024-02-26T00:46:33;2.80;99.90
20881;DHT22;10600;53.096;8.802;2024-02-26T00:47:33;2.80;99.90
20881;DHT22;10600;53.096;8.802;2024-02-26T00:48:35;2.80;99.90
20881;DHT22;10600;53.096;8.802;2024-02-26T00:49:36;2.80;99.90
20881;DHT22;10600;53.096;8.802;2024-02-26T00:50:37;2.80;99.90
20881;DHT22;10600;53.096;8.802;2024-02-26T00:51:37;2.80;99.90
20881;DHT22;10600;53.096;8.802;2024-02-26T00:52:38;2.80;99.90
20881;DHT22;10600;53.096;8.802;2024-02-26T00:53:38;2.80;99.90
20881;DHT22;10600;53.096;8.802;2024-02-26T00:54:39;2.80;99.90
20881;DHT22;10600;53.096;8.802;2024-02-26T00:55:39;2.80;99.90
20881;DHT22;10600;53.096;8.802;2024-02-26T00:56:40;2.80;99.90
20881;DHT22;10600;53.096;8.802;2024-02-26T00:57:40;2.70;99.90
20881;DHT22;10600;53.096;8.802;2024-02-26T00:58:41;2.80;99.90
20881;DHT22;10600;53.096;8.802;2024-02-26T00:59:42;2.80;99.90
20881;DHT22;10600;53.096;8.802;2024-02-26T01:00:42;2.80;99.90
20881;DHT22;10600;53.096;8.802;2024-02-26T01:01:43;2.80;99.90
20881;DHT22;10600;53.096;8.802;2024-02-26T01:02:43;2.80;99.90
20881;DHT22;10600;53.096;8.802;2024-02-26T01:03:46;2.80;99.90
20881;DHT22;10600;53.096;8.802;2024-02-26T01:04:47;2.80;99.90
20881;DHT22;10600;53.096;8.802;2024-02-26T01:05:48;2.80;99.90
20881;DHT22;10600;53.096;8.802;2024-02-26T01:06:48;2.80;99.90
20881;DHT22;10600;53.096;8.802;2024-02-26T01:07:49;2.80;99.90
20881;DHT22;10600;53.096;8.802;2024-02-26T01:08:49;2.80;99.90
20881;DHT22;10600;53.096;8.802;2024-02-26T01:09:50;2.70;99.90
20881;DHT22;10600;53.096;8.802;2024-02-26T01:10:51;2.80;99.90
20881;DHT22;10600;53.096;8.802;2024-02-26T01:11:51;2.70;99.90
20881;DHT22;10600;53.096;8.802;2024-02-26T01:12:52;2.70;99.90
20881;DHT22;10600;53.096;8.802;2024-02-26T01:13:52;2.70;99.90
20881;DHT22;10600;53.096;8.802;2024-02-26T01:14:56;2.70;99.90
20881;DHT22;10600;53.096;8.802;2024-02-26T01:15:57;2.70;99.90
20881;DHT22;10600;53.096;8.802;2024-02-26T01:16:57;2.60;99.90
20881;DHT22;10600;53.096;8.802;2024-02-26T01:17:58;2.60;99.90
20881;DHT22;10600;53.096;8.802;2024-02-26T01:18:58;2.60;99.90
20881;DHT22;10600;53.096;8.802;2024-02-26T01:19:59;2.60;99.90
20881;DHT22;10600;53.096;8.802;2024-02-26T01:21:00;2.60;99.90
20881;DHT22;10600;53.096;8.802;2024-02-26T01:22:00;2.60;99.90
20881;DHT22;10600;53.096;8.802;2024-02-26T01:23:01;2.60;99.90
20881;DHT22;10600;53.096;8.802;2024-02-26T01:24:01;2.60;99.90
20881;DHT22;10600;53.096;8.802;2024-02-26T01:25:02;2.50;99.90
20881;DHT22;10600;53.096;8.802;2024-02-26T01:26:02;2.50;99.90
20881;DHT22;10600;53.096;8.802;2024-02-26T01:27:05;2.50;99.90
20881;DHT22;10600;53.096;8.802;2024-02-26T01:28:06;2.40;99.90
20881;DHT22;10600;53.096;8.802;2024-02-26T01:29:07;2.40;99.90
20881;DHT22;10600;53.096;8.802;2024-02-26T01:30:08;2.40;99.90
20881;DHT22;10600;53.096;8.802;2024-02-26T01:31:09;2.40;99.90
20881;DHT22;10600;53.096;8.802;2024-02-26T01:32:10;2.30;99.90
20881;DHT22;10600;53.096;8.802;2024-02-26T01:33:11;2.40;99.90
20881;DHT22;10600;53.096;8.802;2024-02-26T01:34:11;2.40;99.90
20881;DHT22;10600;53.096;8.802;2024-02-26T01:35:12;2.40;99.90
20881;DHT22;10600;53.096;8.802;2024-02-26T01:36:12;2.40;99.90
20881;DHT22;10600;53.096;8.802;2024-02-26T01:37:13;2.30;99.90
20881;DHT22;10600;53.096;8.802;2024-02-26T01:38:13;2.30;99.90
20881;DHT22;10600;53.096;8.802;2024-02-26T01:39:14;2.30;99.90
20881;DHT22;10600;53.096;8.802;2024-02-26T01:40:14;2.30;99.90
20881;DHT22;10600;53.096;8.802;2024-02-26T01:41:20;2.30;99.90
20881;DHT22;10600;53.096;8.802;2024-02-26T01:42:20;2.30;99.90
20881;DHT22;10600;53.096;8.802;2024-02-26T01:43:22;2.20;99.90
20881;DHT22;10600;53.096;8.802;2024-02-26T01:44:23;2.20;99.90
20881;DHT22;10600;53.096;8.802;2024-02-26T01:45:23;2.20;99.90
20881;DHT22;10600;53.096;8.802;2024-02-26T01:46:26;2.20;99.90
20881;DHT22;10600;53.096;8.802;2024-02-26T01:47:28;2.20;99.90
20881;DHT22;10600;53.096;8.802;2024-02-26T01:48:29;2.20;99.90
20881;DHT22;10600;53.096;8.802;2024-02-26T01:49:30;2.20;99.90
20881;DHT22;10600;53.096;8.802;2024-02-26T01:50:30;2.20;99.90
20881;DHT22;10600;53.096;8.802;2024-02-26T01:51:32;2.20;99.90
20881;DHT22;10600;53.096;8.802;2024-02-26T01:52:33;2.20;99.90
20881;DHT22;10600;53.096;8.802;2024-02-26T01:53:34;2.20;99.90
20881;DHT22;10600;53.096;8.802;2024-02-26T01:54:37;2.30;99.90
20881;DHT22;10600;53.096;8.802;2024-02-26T01:55:38;2.30;99.90
20881;DHT22;10600;53.096;8.802;2024-02-26T01:56:39;2.30;99.90
20881;DHT22;10600;53.096;8.802;2024-02-26T01:57:45;2.30;99.90
20881;DHT22;10600;53.096;8.802;2024-02-26T01:58:46;2.30;99.90
20881;DHT22;10600;53.096;8.802;2024-02-26T01:59:46;2.30;99.90
20881;DHT22;10600;53.096;8.802;2024-02-26T02:00:47;2.30;99.90
20881;DHT22;10600;53.096;8.802;2024-02-26T02:01:49;2.30;99.90
20881;DHT22;10600;53.096;8.802;2024-02-26T02:02:52;2.30;99.90
20881;DHT22;10600;53.096;8.802;2024-02-26T02:03:56;2.30;99.90
20881;DHT22;10600;53.096;8.802;2024-02-26T02:04:58;2.30;99.90
20881;DHT22;10600;53.096;8.802;2024-02-26T02:05:58;2.20;99.90
20881;DHT22;10600;53.096;8.802;2024-02-26T02:07:00;2.20;99.90
20881;DHT22;10600;53.096;8.802;2024-02-26T02:08:00;2.20;99.90
20881;DHT22;10600;53.096;8.802;2024-02-26T02:09:01;2.20;99.90
20881;DHT22;10600;53.096;8.802;2024-02-26T02:10:07;2.20;99.90
20881;DHT22;10600;53.096;8.802;2024-02-26T02:11:08;2.10;99.90
20881;DHT22;10600;53.096;8.802;2024-02-26T02:12:11;2.10;99.90
20881;DHT22;10600;53.096;8.802;2024-02-26T02:13:12;2.10;99.90
20881;DHT22;10600;53.096;8.802;2024-02-26T02:14:12;2.10;99.90
20881;DHT22;10600;53.096;8.802;2024-02-26T02:15:13;2.10;99.90
20881;DHT22;10600;53.096;8.802;2024-02-26T02:16:14;2.10;99.90
20881;DHT22;10600;53.096;8.802;2024-02-26T02:17:14;2.10;99.90
20881;DHT22;10600;53.096;8.802;2024-02-26T02:18:15;2.10;99.90
20881;DHT22;10600;53.096;8.802;2024-02-26T02:19:15;2.10;99.90
20881;DHT22;10600;53.096;8.802;2024-02-26T02:20:17;2.00;99.90
20881;DHT22;10600;53.096;8.802;2024-02-26T02:21:18;2.00;99.90
20881;DHT22;10600;53.096;8.802;2024-02-26T02:22:19;2.00;99.90
20881;DHT22;10600;53.096;8.802;2024-02-26T02:23:19;2.00;99.90
20881;DHT22;10600;53.096;8.802;2024-02-26T02:24:20;2.00;99.90
20881;DHT22;10600;53.096;8.802;2024-02-26T02:25:20;2.00;99.90
20881;DHT22;10600;53.096;8.802;2024-02-26T02:26:21;2.00;99.90
20881;DHT22;10600;53.096;8.802;2024-02-26T02:27:22;2.00;99.90
20881;DHT22;10600;53.096;8.802;2024-02-26T02:28:24;2.00;99.90
20881;DHT22;10600;53.096;8.802;2024-02-26T02:29:26;2.00;99.90
20881;DHT22;10600;53.096;8.802;2024-02-26T02:30:29;2.00;99.90
20881;DHT22;10600;53.096;8.802;2024-02-26T02:31:31;2.00;99.90
20881;DHT22;10600;53.096;8.802;2024-02-26T02:32:31;2.00;99.90
20881;DHT22;10600;53.096;8.802;2024-02-26T02:33:33;2.00;99.90
20881;DHT22;10600;53.096;8.802;2024-02-26T02:34:34;2.00;99.90
20881;DHT22;10600;53.096;8.802;2024-02-26T02:35:35;1.90;99.90
20881;DHT22;10600;53.096;8.802;2024-02-26T02:36:48;1.90;99.90
20881;DHT22;10600;53.096;8.802;2024-02-26T02:37:51;2.00;99.90
20881;DHT22;10600;53.096;8.802;2024-02-26T02:38:52;2.00;99.90
20881;DHT22;10600;53.096;8.802;2024-02-26T02:39:52;2.00;99.90
20881;DHT22;10600;53.096;8.802;2024-02-26T02:40:55;2.00;99.90
20881;DHT22;10600;53.096;8.802;2024-02-26T02:41:55;2.00;99.90
20881;DHT22;10600;53.096;8.802;2024-02-26T02:42:56;2.00;99.90
20881;DHT22;10600;53.096;8.802;2024-02-26T02:43:56;2.00;99.90
20881;DHT22;10600;53.096;8.802;2024-02-26T02:44:57;2.00;99.90
20881;DHT22;10600;53.096;8.802;2024-02-26T02:45:58;1.90;99.90
20881;DHT22;10600;53.096;8.802;2024-02-26T02:46:59;1.90;99.90
20881;DHT22;10600;53.096;8.802;2024-02-26T02:47:59;2.00;99.90
20881;DHT22;10600;53.096;8.802;2024-02-26T02:49:00;2.00;99.90
20881;DHT22;10600;53.096;8.802;2024-02-26T02:50:01;2.00;99.90
20881;DHT22;10600;53.096;8.802;2024-02-26T02:51:02;2.00;99.90
20881;DHT22;10600;53.096;8.802;2024-02-26T02:52:02;2.00;99.90
20881;DHT22;10600;53.096;8.802;2024-02-26T02:53:03;2.00;99.90
20881;DHT22;10600;53.096;8.802;2024-02-26T02:54:04;1.90;99.90
20881;DHT22;10600;53.096;8.802;2024-02-26T02:55:04;1.90;99.90
20881;DHT22;10600;53.096;8.802;2024-02-26T02:56:05;1.90;99.90
20881;DHT22;10600;53.096;8.802;2024-02-26T02:57:06;1.90;99.90
20881;DHT22;10600;53.096;8.802;2024-02-26T02:58:06;1.80;99.90
20881;DHT22;10600;53.096;8.802;2024-02-26T02:59:07;1.80;99.90
20881;DHT22;10600;53.096;8.802;2024-02-26T03:00:08;1.80;99.90
20881;DHT22;10600;53.096;8.802;2024-02-26T03:01:09;1.80;99.90
20881;DHT22;10600;53.096;8.802;2024-02-26T03:02:10;1.80;99.90
20881;DHT22;10600;53.096;8.802;2024-02-26T03:03:10;1.80;99.90
20881;DHT22;10600;53.096;8.802;2024-02-26T03:04:12;1.70;99.90
20881;DHT22;10600;53.096;8.802;2024-02-26T03:05:13;1.70;99.90
20881;DHT22;10600;53.096;8.802;2024-02-26T03:06:13;1.70;99.90
20881;DHT22;10600;53.096;8.802;2024-02-26T03:07:14;1.70;99.90
20881;DHT22;10600;53.096;8.802;2024-02-26T03:08:14;1.70;99.90
20881;DHT22;10600;53.096;8.802;2024-02-26T03:09:15;1.70;99.90
20881;DHT22;10600;53.096;8.802;2024-02-26T03:10:15;1.70;99.90
20881;DHT22;10600;53.096;8.802;2024-02-26T03:11:16;1.70;99.90
20881;DHT22;10600;53.096;8.802;2024-02-26T03:12:16;1.60;99.90
20881;DHT22;10600;53.096;8.802;2024-02-26T03:13:18;1.60;99.90
20881;DHT22;10600;53.096;8.802;2024-02-26T03:14:19;1.60;99.90
20881;DHT22;10600;53.096;8.802;2024-02-26T03:15:19;1.60;99.90
20881;DHT22;10600;53.096;8.802;2024-02-26T03:16:20;1.60;99.90
20881;DHT22;10600;53.096;8.802;2024-02-26T03:17:20;1.60;99.90
20881;DHT22;10600;53.096;8.802;2024-02-26T03:18:21;1.60;99.90
20881;DHT22;10600;53.096;8.802;2024-02-26T03:19:22;1.60;99.90
20881;DHT22;10600;53.096;8.802;2024-02-26T03:20:22;1.60;99.90
20881;DHT22;10600;53.096;8.802;2024-02-26T03:21:24;1.60;99.90
20881;DHT22;10600;53.096;8.802;2024-02-26T03:22:25;1.60;99.90
20881;DHT22;10600;53.096;8.802;2024-02-26T03:23:26;1.60;99.90
20881;DHT22;10600;53.096;8.802;2024-02-26T03:24:26;1.60;99.90
20881;DHT22;10600;53.096;8.802;2024-02-26T03:25:27;1.60;99.90
20881;DHT22;10600;53.096;8.802;2024-02-26T03:26:27;1.60;99.90
20881;DHT22;10600;53.096;8.802;2024-02-26T03:27:28;1.60;99.90
20881;DHT22;10600;53.096;8.802;2024-02-26T03:28:29;1.60;99.90
20881;DHT22;10600;53.096;8.802;2024-02-26T03:29:29;1.60;99.90
20881;DHT22;10600;53.096;8.802;2024-02-26T03:30:30;1.70;99.90
20881;DHT22;10600;53.096;8.802;2024-02-26T03:31:30;1.60;99.90
20881;DHT22;10600;53.096;8.802;2024-02-26T03:32:31;1.60;99.90
20881;DHT22;10600;53.096;8.802;2024-02-26T03:33:31;1.60;99.90
20881;DHT22;10600;53.096;8.802;2024-02-26T03:34:33;1.60;99.90
20881;DHT22;10600;53.096;8.802;2024-02-26T03:35:36;1.60;99.90
20881;DHT22;10600;53.096;8.802;2024-02-26T03:36:37;1.60;99.90
20881;DHT22;10600;53.096;8.802;2024-02-26T03:37:37;1.60;99.90
20881;DHT22;10600;53.096;8.802;2024-02-26T03:38:38;1.60;99.90
20881;DHT22;10600;53.096;8.802;2024-02-26T03:39:39;1.60;99.90
20881;DHT22;10600;53.096;8.802;2024-02-26T03:40:39;1.60;99.90
20881;DHT22;10600;53.096;8.802;2024-02-26T03:41:40;1.60;99.90
20881;DHT22;10600;53.096;8.802;2024-02-26T03:42:40;1.60;99.90
20881;DHT22;10600;53.096;8.802;2024-02-26T03:43:41;1.60;99.90
20881;DHT22;10600;53.096;8.802;2024-02-26T03:44:41;1.60;99.90
20881;DHT22;10600;53.096;8.802;2024-02-26T03:45:42;1.60;99.90
20881;DHT22;10600;53.096;8.802;2024-02-26T03:46:43;1.60;99.90
20881;DHT22;10600;53.096;8.802;2024-02-26T03:47:43;1.60;99.90
20881;DHT22;10600;53.096;8.802;2024-02-26T03:48:44;1.60;99.90
20881;DHT22;10600;53.096;8.802;2024-02-26T03:49:44;1.60;99.90
20881;DHT22;10600;53.096;8.802;2024-02-26T03:50:45;1.60;99.90
20881;DHT22;10600;53.096;8.802;2024-02-26T03:51:46;1.60;99.90
20881;DHT22;10600;53.096;8.802;2024-02-26T03:52:46;1.60;99.90
20881;DHT22;10600;53.096;8.802;2024-02-26T03:53:47;1.60;99.90
20881;DHT22;10600;53.096;8.802;2024-02-26T03:54:47;1.60;99.90
20881;DHT22;10600;53.096;8.802;2024-02-26T03:55:48;1.70;99.90
20881;DHT22;10600;53.096;8.802;2024-02-26T03:56:49;1.70;99.90
20881;DHT22;10600;53.096;8.802;2024-02-26T03:57:53;1.60;99.90
20881;DHT22;10600;53.096;8.802;2024-02-26T03:58:54;1.60;99.90
20881;DHT22;10600;53.096;8.802;2024-02-26T03:59:54;1.60;99.90
20881;DHT22;10600;53.096;8.802;2024-02-26T04:00:55;1.60;99.90
20881;DHT22;10600;53.096;8.802;2024-02-26T04:01:55;1.60;99.90
20881;DHT22;10600;53.096;8.802;2024-02-26T04:02:56;1.60;99.90
20881;DHT22;10600;53.096;8.802;2024-02-26T04:03:56;1.60;99.90
20881;DHT22;10600;53.096;8.802;2024-02-26T04:04:57;1.60;99.90
20881;DHT22;10600;53.096;8.802;2024-02-26T04:05:57;1.60;99.90
20881;DHT22;10600;53.096;8.802;2024-02-26T04:06:58;1.60;99.90
20881;DHT22;10600;53.096;8.802;2024-02-26T04:07:59;1.60;99.90
20881;DHT22;10600;53.096;8.802;2024-02-26T04:08:59;1.60;99.90
20881;DHT22;10600;53.096;8.802;2024-02-26T04:10:00;1.60;99.90
20881;DHT22;10600;53.096;8.802;2024-02-26T04:11:03;1.60;99.90
20881;DHT22;10600;53.096;8.802;2024-02-26T04:12:07;1.60;99.90
20881;DHT22;10600;53.096;8.802;2024-02-26T04:13:08;1.60;99.90
20881;DHT22;10600;53.096;8.802;2024-02-26T04:14:09;1.60;99.90
20881;DHT22;10600;53.096;8.802;2024-02-26T04:15:12;1.60;99.90
20881;DHT22;10600;53.096;8.802;2024-02-26T04:16:12;1.60;99.90
20881;DHT22;10600;53.096;8.802;2024-02-26T04:17:13;1.60;99.90
20881;DHT22;10600;53.096;8.802;2024-02-26T04:18:13;1.60;99.90
20881;DHT22;10600;53.096;8.802;2024-02-26T04:19:14;1.60;99.90
20881;DHT22;10600;53.096;8.802;2024-02-26T04:20:15;1.60;99.90
20881;DHT22;10600;53.096;8.802;2024-02-26T04:21:17;1.60;99.90
20881;DHT22;10600;53.096;8.802;2024-02-26T04:22:17;1.60;99.90
20881;DHT22;10600;53.096;8.802;2024-02-26T04:23:18;1.60;99.90
20881;DHT22;10600;53.096;8.802;2024-02-26T04:24:18;1.60;99.90
20881;DHT22;10600;53.096;8.802;2024-02-26T04:25:19;1.60;99.90
20881;DHT22;10600;53.096;8.802;2024-02-26T04:26:19;1.60;99.90
20881;DHT22;10600;53.096;8.802;2024-02-26T04:27:20;1.60;99.90
20881;DHT22;10600;53.096;8.802;2024-02-26T04:28:21;1.60;99.90
20881;DHT22;10600;53.096;8.802;2024-02-26T04:29:21;1.60;99.90
20881;DHT22;10600;53.096;8.802;2024-02-26T04:30:22;1.60;99.90
20881;DHT22;10600;53.096;8.802;2024-02-26T04:31:22;1.60;99.90
20881;DHT22;10600;53.096;8.802;2024-02-26T04:32:23;1.60;99.90
20881;DHT22;10600;53.096;8.802;2024-02-26T04:33:23;1.60;99.90
20881;DHT22;10600;53.096;8.802;2024-02-26T04:34:24;1.60;99.90
20881;DHT22;10600;53.096;8.802;2024-02-26T04:35:25;1.60;99.90
20881;DHT22;10600;53.096;8.802;2024-02-26T04:36:26;1.60;99.90
20881;DHT22;10600;53.096;8.802;2024-02-26T04:37:26;1.60;99.90
20881;DHT22;10600;53.096;8.802;2024-02-26T04:38:31;1.60;99.90
20881;DHT22;10600;53.096;8.802;2024-02-26T04:39:31;1.70;99.90
20881;DHT22;10600;53.096;8.802;2024-02-26T04:40:32;1.70;99.90
20881;DHT22;10600;53.096;8.802;2024-02-26T04:41:32;1.70;99.90
20881;DHT22;10600;53.096;8.802;2024-02-26T04:42:33;1.70;99.90
20881;DHT22;10600;53.096;8.802;2024-02-26T04:43:33;1.70;99.90
20881;DHT22;10600;53.096;8.802;2024-02-26T04:44:34;1.70;99.90
20881;DHT22;10600;53.096;8.802;2024-02-26T04:45:34;1.70;99.90
20881;DHT22;10600;53.096;8.802;2024-02-26T04:46:35;1.70;99.90
20881;DHT22;10600;53.096;8.802;2024-02-26T04:47:35;1.70;99.90
20881;DHT22;10600;53.096;8.802;2024-02-26T04:48:36;1.80;99.90
20881;DHT22;10600;53.096;8.802;2024-02-26T04:49:39;1.80;99.90
20881;DHT22;10600;53.096;8.802;2024-02-26T04:50:40;1.70;99.90
20881;DHT22;10600;53.096;8.802;2024-02-26T04:51:41;1.80;99.90
20881;DHT22;10600;53.096;8.802;2024-02-26T04:52:41;1.80;99.90
20881;DHT22;10600;53.096;8.802;2024-02-26T04:53:42;1.80;99.90
20881;DHT22;10600;53.096;8.802;2024-02-26T04:54:42;1.80;99.90
20881;DHT22;10600;53.096;8.802;2024-02-26T04:55:43;1.80;99.90
20881;DHT22;10600;53.096;8.802;2024-02-26T04:56:43;1.80;99.90
20881;DHT22;10600;53.096;8.802;2024-02-26T04:57:44;1.80;99.90
20881;DHT22;10600;53.096;8.802;2024-02-26T04:58:45;1.90;99.90
20881;DHT22;10600;53.096;8.802;2024-02-26T04:59:45;1.80;99.90
20881;DHT22;10600;53.096;8.802;2024-02-26T05:00:46;1.80;99.90
20881;DHT22;10600;53.096;8.802;2024-02-26T05:01:46;1.80;99.90
20881;DHT22;10600;53.096;8.802;2024-02-26T05:02:47;1.80;99.90
20881;DHT22;10600;53.096;8.802;2024-02-26T05:03:47;1.80;99.90
20881;DHT22;10600;53.096;8.802;2024-02-26T05:04:48;1.80;99.90
20881;DHT22;10600;53.096;8.802;2024-02-26T05:05:48;1.80;99.90
20881;DHT22;10600;53.096;8.802;2024-02-26T05:06:49;1.80;99.90
20881;DHT22;10600;53.096;8.802;2024-02-26T05:07:50;1.80;99.90
20881;DHT22;10600;53.096;8.802;2024-02-26T05:08:50;1.80;99.90
20881;DHT22;10600;53.096;8.802;2024-02-26T05:09:51;1.80;99.90
20881;DHT22;10600;53.096;8.802;2024-02-26T05:10:51;1.80;99.90
20881;DHT22;10600;53.096;8.802;2024-02-26T05:11:52;1.80;99.90
20881;DHT22;10600;53.096;8.802;2024-02-26T05:12:53;1.80;99.90
20881;DHT22;10600;53.096;8.802;2024-02-26T05:13:53;1.80;99.90
20881;DHT22;10600;53.096;8.802;2024-02-26T05:14:54;1.80;99.90
20881;DHT22;10600;53.096;8.802;2024-02-26T05:15:54;1.80;99.90
20881;DHT22;10600;53.096;8.802;2024-02-26T05:16:55;1.80;99.90
20881;DHT22;10600;53.096;8.802;2024-02-26T05:17:56;1.70;99.90
20881;DHT22;10600;53.096;8.802;2024-02-26T05:18:57;1.70;99.90
20881;DHT22;10600;53.096;8.802;2024-02-26T05:19:57;1.70;99.90
20881;DHT22;10600;53.096;8.802;2024-02-26T05:20:58;1.70;99.90
20881;DHT22;10600;53.096;8.802;2024-02-26T05:21:59;1.70;99.90
20881;DHT22;10600;53.096;8.802;2024-02-26T05:22:59;1.70;99.90
20881;DHT22;10600;53.096;8.802;2024-02-26T05:24:00;1.80;99.90
20881;DHT22;10600;53.096;8.802;2024-02-26T05:25:00;1.70;99.90
20881;DHT22;10600;53.096;8.802;2024-02-26T05:26:01;1.70;99.90
20881;DHT22;10600;53.096;8.802;2024-02-26T05:27:01;1.70;99.90
20881;DHT22;10600;53.096;8.802;2024-02-26T05:28:02;1.70;99.90
20881;DHT22;10600;53.096;8.802;2024-02-26T05:29:02;1.70;99.90
20881;DHT22;10600;53.096;8.802;2024-02-26T05:30:03;1.80;99.90
20881;DHT22;10600;53.096;8.802;2024-02-26T05:31:04;1.80;99.90
20881;DHT22;10600;53.096;8.802;2024-02-26T05:32:05;1.70;99.90
20881;DHT22;10600;53.096;8.802;2024-02-26T05:33:06;1.80;99.90
20881;DHT22;10600;53.096;8.802;2024-02-26T05:34:07;1.70;99.90
20881;DHT22;10600;53.096;8.802;2024-02-26T05:35:07;1.70;99.90
20881;DHT22;10600;53.096;8.802;2024-02-26T05:36:08;1.70;99.90
20881;DHT22;10600;53.096;8.802;2024-02-26T05:37:09;1.70;99.90
20881;DHT22;10600;53.096;8.802;2024-02-26T05:38:10;1.70;99.90
20881;DHT22;10600;53.096;8.802;2024-02-26T05:39:11;1.70;99.90
20881;DHT22;10600;53.096;8.802;2024-02-26T05:40:12;1.70;99.90
20881;DHT22;10600;53.096;8.802;2024-02-26T05:41:15;1.80;99.90
20881;DHT22;10600;53.096;8.802;2024-02-26T05:42:15;1.80;99.90
20881;DHT22;10600;53.096;8.802;2024-02-26T05:43:16;1.80;99.90
20881;DHT22;10600;53.096;8.802;2024-02-26T05:44:17;1.80;99.90
20881;DHT22;10600;53.096;8.802;2024-02-26T05:45:18;1.80;99.90
20881;DHT22;10600;53.096;8.802;2024-02-26T05:46:19;1.80;99.90
20881;DHT22;10600;53.096;8.802;2024-02-26T05:47:20;1.80;99.90
20881;DHT22;10600;53.096;8.802;2024-02-26T05:48:21;1.80;99.90
20881;DHT22;10600;53.096;8.802;2024-02-26T05:49:25;1.80;99.90
20881;DHT22;10600;53.096;8.802;2024-02-26T05:50:25;1.80;99.90
20881;DHT22;10600;53.096;8.802;2024-02-26T05:51:26;1.80;99.90
20881;DHT22;10600;53.096;8.802;2024-02-26T05:52:27;1.80;99.90
20881;DHT22;10600;53.096;8.802;2024-02-26T05:53:28;1.80;99.90
20881;DHT22;10600;53.096;8.802;2024-02-26T05:54:28;1.80;99.90
20881;DHT22;10600;53.096;8.802;2024-02-26T05:55:29;1.80;99.90
20881;DHT22;10600;53.096;8.802;2024-02-26T05:56:30;1.80;99.90
20881;DHT22;10600;53.096;8.802;2024-02-26T05:57:31;1.80;99.90
20881;DHT22;10600;53.096;8.802;2024-02-26T05:58:32;1.80;99.90
20881;DHT22;10600;53.096;8.802;2024-02-26T05:59:32;1.80;99.90
20881;DHT22;10600;53.096;8.802;2024-02-26T06:00:33;1.80;99.90
20881;DHT22;10600;53.096;8.802;2024-02-26T06:01:33;1.80;99.90
20881;DHT22;10600;53.096;8.802;2024-02-26T06:02:34;1.80;99.90
20881;DHT22;10600;53.096;8.802;2024-02-26T06:03:34;1.80;99.90
20881;DHT22;10600;53.096;8.802;2024-02-26T06:04:35;1.80;99.90
20881;DHT22;10600;53.096;8.802;2024-02-26T06:05:35;1.80;99.90
20881;DHT22;10600;53.096;8.802;2024-02-26T06:06:36;1.80;99.90
20881;DHT22;10600;53.096;8.802;2024-02-26T06:07:36;1.80;99.90
20881;DHT22;10600;53.096;8.802;2024-02-26T06:08:37;1.70;99.90
20881;DHT22;10600;53.096;8.802;2024-02-26T06:09:38;1.80;99.90
20881;DHT22;10600;53.096;8.802;2024-02-26T06:10:39;1.70;99.90
20881;DHT22;10600;53.096;8.802;2024-02-26T06:11:40;1.70;99.90
20881;DHT22;10600;53.096;8.802;2024-02-26T06:12:40;1.70;99.90
20881;DHT22;10600;53.096;8.802;2024-02-26T06:13:41;1.80;99.90
20881;DHT22;10600;53.096;8.802;2024-02-26T06:14:44;1.80;99.90
20881;DHT22;10600;53.096;8.802;2024-02-26T06:15:45;1.80;99.90
20881;DHT22;10600;53.096;8.802;2024-02-26T06:16:46;1.80;99.90
20881;DHT22;10600;53.096;8.802;2024-02-26T06:17:46;1.90;99.90
20881;DHT22;10600;53.096;8.802;2024-02-26T06:18:47;1.90;99.90
20881;DHT22;10600;53.096;8.802;2024-02-26T06:19:47;1.90;99.90
20881;DHT22;10600;53.096;8.802;2024-02-26T06:20:48;1.90;99.90
20881;DHT22;10600;53.096;8.802;2024-02-26T06:21:48;1.90;99.90
20881;DHT22;10600;53.096;8.802;2024-02-26T06:22:49;1.90;99.90
20881;DHT22;10600;53.096;8.802;2024-02-26T06:23:49;1.90;99.90
20881;DHT22;10600;53.096;8.802;2024-02-26T06:24:50;2.00;99.90
20881;DHT22;10600;53.096;8.802;2024-02-26T06:25:51;2.00;99.90
20881;DHT22;10600;53.096;8.802;2024-02-26T06:26:52;2.00;99.90
20881;DHT22;10600;53.096;8.802;2024-02-26T06:27:52;2.00;99.90
20881;DHT22;10600;53.096;8.802;2024-02-26T06:28:53;2.00;99.90
20881;DHT22;10600;53.096;8.802;2024-02-26T06:29:55;2.00;99.90
20881;DHT22;10600;53.096;8.802;2024-02-26T06:30:55;2.00;99.90